Anza, California
Current Conditions -  °F | °C
As of 5:53 PM on Saturday 25 Oct 2014 (Local Time) from KPSP Reporting Station
Clear Clear  
Wind Chill: 90°   Ceiling: Unl
Heat Index: 90°   Visibility: 10mi
Dew Point: 44°   Wind: 15mph
Humidity: 20%   Direction: 310°NW
Pressure: 29.89"   Gusts: NA
Location:  33.55°N, 116.67°W
Report Text: KPSP 260053Z 31013KT 10SM CLR 32/07 A2989 RMK AO2 SLP117 T03220067
Loading
Personal Weather Stations






























Interactive Weather Map
Tropical Storm Tracking
New forecast layout! Learn more

10-Day Weather Forecast

Advertisements
Track Severe Weather on mobile